Time;durP1;ratioP1;P1;durP2;ratioP2;P2;SDS_P1;SDS_P2;PMS_P1;PMS_P2;Temp;Humidity;BMP_temperature;BMP_pressure;BME280_temperature;BME280_humidity;BME280_pressure;Samples;Min_cycle;Max_cycle;Signal;HPM_P1;HPM_P2
2022/05/24 00:02:21;;;;;;;25.55;21.48;;;;;;;;;;5087328;28;20023;-64
2022/05/24 00:04:47;;;;;;;27.83;21.27;;;;;;;;;;5080732;28;20030;-62
2022/05/24 00:07:13;;;;;;;28.42;23.05;;;;;;;;;;5080932;28;20446;-62
2022/05/24 00:09:39;;;;;;;25.75;21.30;;;;;;;;;;5090824;28;20092;-63
2022/05/24 00:12:05;;;;;;;29.70;21.48;;;;;;;;;;5092197;28;20031;-63
2022/05/24 00:17:16;;;;;;;26.20;22.25;;;;;;;;;;5080593;28;20039;-60
2022/05/24 00:19:43;;;;;;;26.30;22.77;;;;;;;;;;5081945;28;20020;-60
2022/05/24 00:22:09;;;;;;;30.40;24.58;;;;;;;;;;5077393;28;20077;-61
2022/05/24 00:24:35;;;;;;;28.15;23.33;;;;;;;;;;5086111;28;20107;-61
2022/05/24 00:27:01;;;;;;;29.67;23.42;;;;;;;;;;5094070;28;20035;-61
2022/05/24 00:29:27;;;;;;;28.10;24.13;;;;;;;;;;5092857;28;20081;-62
2022/05/24 00:31:53;;;;;;;31.70;24.52;;;;;;;;;;5083993;28;20035;-64
2022/05/24 00:34:19;;;;;;;30.25;23.92;;;;;;;;;;5092785;28;20016;-62
2022/05/24 00:36:45;;;;;;;29.33;22.55;;;;;;;;;;5094477;28;20023;-61
2022/05/24 00:39:11;;;;;;;26.42;22.42;;;;;;;;;;5090307;28;20068;-60
2022/05/24 00:41:45;;;;;;;28.35;22.25;;;;;;;;;;5089237;28;20353;-61
2022/05/24 00:44:43;;;;;;;30.02;22.70;;;;;;;;;;5087424;28;20024;-63
2022/05/24 00:47:15;;;;;;;27.20;21.02;;;;;;;;;;5060514;28;20032;-63
2022/05/24 00:49:45;;;;;;;28.95;22.85;;;;;;;;;;5083278;28;20028;-61
2022/05/24 00:52:14;;;;;;;33.45;22.23;;;;;;;;;;5082523;28;20531;-63
2022/05/24 00:54:40;;;;;;;24.77;20.85;;;;;;;;;;5080454;28;20055;-61
2022/05/24 00:57:11;;;;;;;29.60;22.45;;;;;;;;;;5085155;28;20077;-58
2022/05/24 00:59:40;;;;;;;27.85;22.58;;;;;;;;;;5089701;28;20051;-63
2022/05/24 01:02:06;;;;;;;26.75;21.13;;;;;;;;;;5088905;28;20040;-59
2022/05/24 01:04:33;;;;;;;27.05;21.90;;;;;;;;;;5078364;28;20028;-62
2022/05/24 01:06:59;;;;;;;24.42;20.63;;;;;;;;;;5083095;28;20400;-63
2022/05/24 01:09:28;;;;;;;27.50;20.80;;;;;;;;;;5084513;28;20377;-60
2022/05/24 01:11:56;;;;;;;26.83;20.85;;;;;;;;;;5075153;28;20454;-61
2022/05/24 01:14:23;;;;;;;28.55;21.02;;;;;;;;;;5091069;28;20012;-63
2022/05/24 01:16:52;;;;;;;25.48;19.98;;;;;;;;;;5077528;28;20512;-64
2022/05/24 01:19:47;;;;;;;25.25;20.58;;;;;;;;;;5081577;28;20029;-60
2022/05/24 01:22:13;;;;;;;25.42;21.63;;;;;;;;;;5070376;28;20118;-60
2022/05/24 01:24:45;;;;;;;27.13;21.75;;;;;;;;;;5083792;28;20123;-62
2022/05/24 01:27:11;;;;;;;25.80;20.95;;;;;;;;;;5075758;28;20080;-63
2022/05/24 01:29:38;;;;;;;24.15;20.95;;;;;;;;;;5090294;28;20233;-63
2022/05/24 01:37:34;;;;;;;26.65;20.65;;;;;;;;;;5084430;28;20042;-61
2022/05/24 01:40:00;;;;;;;29.00;22.48;;;;;;;;;;5089068;28;20572;-64
2022/05/24 01:42:27;;;;;;;29.88;21.48;;;;;;;;;;5083518;28;20541;-63
2022/05/24 01:44:56;;;;;;;28.10;21.30;;;;;;;;;;5087780;28;20036;-64
2022/05/24 01:47:23;;;;;;;28.98;21.85;;;;;;;;;;5092420;28;20028;-63
2022/05/24 01:49:54;;;;;;;28.63;21.80;;;;;;;;;;5080206;28;20090;-64
2022/05/24 01:52:32;;;;;;;28.52;21.88;;;;;;;;;;5093523;28;20020;-60
2022/05/24 01:55:02;;;;;;;27.20;21.73;;;;;;;;;;5084446;28;20136;-63
2022/05/24 01:57:30;;;;;;;26.42;20.98;;;;;;;;;;5089130;28;20041;-62
2022/05/24 01:59:57;;;;;;;27.38;22.50;;;;;;;;;;5089559;28;20082;-63
2022/05/24 02:02:23;;;;;;;27.00;21.70;;;;;;;;;;5097800;28;20038;-62
2022/05/24 02:04:49;;;;;;;28.98;21.75;;;;;;;;;;5086974;28;20540;-58
2022/05/24 02:07:17;;;;;;;29.77;21.42;;;;;;;;;;5087804;28;20031;-63
2022/05/24 02:09:44;;;;;;;26.75;21.10;;;;;;;;;;5092404;28;20491;-63
2022/05/24 02:12:13;;;;;;;25.30;21.48;;;;;;;;;;5082208;28;20059;-61
2022/05/24 02:14:42;;;;;;;26.58;20.60;;;;;;;;;;5088957;28;20039;-63
2022/05/24 02:17:11;;;;;;;28.52;18.50;;;;;;;;;;5093337;28;20122;-63
2022/05/24 02:19:39;;;;;;;24.08;16.02;;;;;;;;;;5089144;28;20387;-64
2022/05/24 02:22:16;;;;;;;22.05;14.90;;;;;;;;;;5083071;28;20032;-63
2022/05/24 02:24:42;;;;;;;17.60;14.07;;;;;;;;;;5090963;28;20443;-62
2022/05/24 02:27:08;;;;;;;20.73;13.50;;;;;;;;;;5093324;28;20030;-61
2022/05/24 02:29:34;;;;;;;16.00;12.07;;;;;;;;;;5097766;28;20411;-61
2022/05/24 02:32:01;;;;;;;21.38;12.48;;;;;;;;;;5094157;28;20062;-64
2022/05/24 02:34:27;;;;;;;17.90;12.13;;;;;;;;;;5092698;28;21079;-63
2022/05/24 02:36:53;;;;;;;19.00;12.25;;;;;;;;;;5096410;28;20070;-63
2022/05/24 02:39:19;;;;;;;16.80;11.02;;;;;;;;;;5096916;28;20094;-63
2022/05/24 02:41:45;;;;;;;18.42;11.43;;;;;;;;;;5089859;28;20028;-61
2022/05/24 02:44:13;;;;;;;18.38;11.10;;;;;;;;;;5094540;28;20987;-63
2022/05/24 02:46:40;;;;;;;13.00;10.10;;;;;;;;;;5091419;28;20149;-63
2022/05/24 02:49:07;;;;;;;16.52;11.20;;;;;;;;;;5093268;28;20020;-63
2022/05/24 02:51:34;;;;;;;16.92;11.10;;;;;;;;;;5091706;28;20460;-63
2022/05/24 02:54:00;;;;;;;18.05;11.73;;;;;;;;;;5098416;28;20541;-62
2022/05/24 02:56:27;;;;;;;17.90;10.48;;;;;;;;;;5093436;28;20028;-59
2022/05/24 02:58:53;;;;;;;16.00;11.35;;;;;;;;;;5098208;28;20631;-63
2022/05/24 03:01:24;;;;;;;17.85;10.52;;;;;;;;;;5092385;28;20020;-64
2022/05/24 03:03:51;;;;;;;14.70;11.13;;;;;;;;;;5088157;28;20410;-64
2022/05/24 03:06:18;;;;;;;16.50;10.25;;;;;;;;;;5096676;28;20425;-62
2022/05/24 03:14:14;;;;;;;14.07;9.65;;;;;;;;;;5094427;28;20039;-64
2022/05/24 03:14:15;;;;;;;14.02;8.52;;;;;;;;;;5095899;28;20046;-61
2022/05/24 03:16:45;;;;;;;16.20;9.02;;;;;;;;;;5083373;28;20383;-62
2022/05/24 03:19:11;;;;;;;16.10;9.65;;;;;;;;;;5086197;28;20016;-62
2022/05/24 03:21:37;;;;;;;16.00;9.13;;;;;;;;;;5092090;28;20031;-60
2022/05/24 03:24:03;;;;;;;15.52;9.43;;;;;;;;;;5088990;28;20030;-64
2022/05/24 03:26:29;;;;;;;15.18;8.93;;;;;;;;;;5087562;28;20024;-63
2022/05/24 03:28:55;;;;;;;12.93;7.80;;;;;;;;;;5085595;28;20040;-59
2022/05/24 03:31:22;;;;;;;14.70;8.23;;;;;;;;;;5099330;28;20031;-63
2022/05/24 03:33:48;;;;;;;12.38;8.57;;;;;;;;;;5094023;28;20110;-59
2022/05/24 03:36:14;;;;;;;14.95;8.25;;;;;;;;;;5091295;28;20762;-61
2022/05/24 03:38:40;;;;;;;14.82;7.95;;;;;;;;;;5086118;28;20039;-62
2022/05/24 03:41:06;;;;;;;15.07;7.57;;;;;;;;;;5093341;28;20467;-62
2022/05/24 03:43:32;;;;;;;16.13;8.85;;;;;;;;;;5099373;28;20024;-61
2022/05/24 03:46:02;;;;;;;17.10;8.48;;;;;;;;;;5086870;28;20282;-58
2022/05/24 03:48:28;;;;;;;16.10;9.30;;;;;;;;;;5091717;28;20073;-62
2022/05/24 03:50:55;;;;;;;18.58;9.05;;;;;;;;;;5085504;28;20596;-62
2022/05/24 03:53:21;;;;;;;15.45;7.82;;;;;;;;;;5092799;28;20062;-58
2022/05/24 03:55:47;;;;;;;14.13;8.10;;;;;;;;;;5099294;28;20092;-59
2022/05/24 03:58:13;;;;;;;15.18;8.07;;;;;;;;;;5095979;28;20388;-60
2022/05/24 04:00:41;;;;;;;14.82;8.50;;;;;;;;;;5088284;28;20039;-60
2022/05/24 04:03:08;;;;;;;13.90;7.75;;;;;;;;;;5088896;28;20571;-64
2022/05/24 04:05:34;;;;;;;11.15;7.07;;;;;;;;;;5098733;28;20023;-63
2022/05/24 04:08:00;;;;;;;11.02;7.15;;;;;;;;;;5091853;28;20016;-61
2022/05/24 04:10:27;;;;;;;15.10;7.60;;;;;;;;;;5088382;28;20024;-60
2022/05/24 04:12:53;;;;;;;13.75;7.03;;;;;;;;;;5084880;28;20081;-62
2022/05/24 04:15:19;;;;;;;14.38;7.30;;;;;;;;;;5091143;28;20028;-62
2022/05/24 04:17:46;;;;;;;16.65;7.80;;;;;;;;;;5082257;28;20032;-59
2022/05/24 04:20:13;;;;;;;13.30;7.43;;;;;;;;;;5083566;28;20081;-62
2022/05/24 04:22:39;;;;;;;15.00;7.10;;;;;;;;;;5077306;28;20028;-61
2022/05/24 04:25:06;;;;;;;15.88;7.80;;;;;;;;;;5088740;28;20103;-63
2022/05/24 04:27:32;;;;;;;9.98;7.00;;;;;;;;;;5098892;28;20036;-62
2022/05/24 04:29:58;;;;;;;11.77;6.28;;;;;;;;;;5094063;28;20426;-63
2022/05/24 04:32:24;;;;;;;14.75;7.47;;;;;;;;;;5085346;28;20021;-62
2022/05/24 04:34:50;;;;;;;12.63;6.72;;;;;;;;;;5088127;28;20070;-62
2022/05/24 04:37:16;;;;;;;13.95;7.50;;;;;;;;;;5092502;28;20023;-62
2022/05/24 04:39:42;;;;;;;12.52;6.07;;;;;;;;;;5101988;28;20028;-58
2022/05/24 04:42:24;;;;;;;18.92;6.32;;;;;;;;;;5094478;28;20042;-61
2022/05/24 04:44:53;;;;;;;10.32;5.40;;;;;;;;;;5085664;28;20027;-60
2022/05/24 04:47:20;;;;;;;13.70;6.35;;;;;;;;;;5084656;28;20089;-59
2022/05/24 04:49:49;;;;;;;14.30;5.88;;;;;;;;;;5098252;28;20054;-59
2022/05/24 04:52:16;;;;;;;10.18;5.30;;;;;;;;;;5078781;28;20111;-61
2022/05/24 04:54:43;;;;;;;12.25;4.85;;;;;;;;;;5091508;28;20032;-60
2022/05/24 04:57:09;;;;;;;10.10;4.85;;;;;;;;;;5076481;28;20016;-59
2022/05/24 04:59:35;;;;;;;11.25;4.60;;;;;;;;;;5077973;28;20431;-61
2022/05/24 05:02:02;;;;;;;11.55;4.63;;;;;;;;;;5082497;28;20032;-60
2022/05/24 05:04:28;;;;;;;11.38;4.13;;;;;;;;;;5082833;28;20370;-60
2022/05/24 05:06:54;;;;;;;12.90;3.83;;;;;;;;;;5085314;28;20028;-60
2022/05/24 05:09:20;;;;;;;11.95;3.65;;;;;;;;;;5079785;28;20073;-59
2022/05/24 05:11:46;;;;;;;11.30;3.75;;;;;;;;;;5086514;28;20106;-60
2022/05/24 05:14:12;;;;;;;7.80;3.60;;;;;;;;;;5085323;28;20458;-60
2022/05/24 05:16:39;;;;;;;11.73;3.50;;;;;;;;;;5091421;28;20043;-60
2022/05/24 05:19:06;;;;;;;101.93;83.47;;;;;;;;;;5085560;28;20035;-61
2022/05/24 05:21:33;;;;;;;10.15;3.28;;;;;;;;;;5091585;28;20254;-60
2022/05/24 05:24:00;;;;;;;10.38;3.13;;;;;;;;;;5089709;28;20035;-60
2022/05/24 05:26:26;;;;;;;11.48;2.97;;;;;;;;;;5082174;28;20056;-59
2022/05/24 05:28:53;;;;;;;9.60;3.28;;;;;;;;;;5089816;28;20080;-60
2022/05/24 05:31:22;;;;;;;9.65;3.35;;;;;;;;;;5098966;28;20020;-59
2022/05/24 05:33:49;;;;;;;5.38;2.63;;;;;;;;;;5096729;28;20024;-58
2022/05/24 05:36:15;;;;;;;9.45;3.00;;;;;;;;;;5091815;28;20035;-60
2022/05/24 05:38:45;;;;;;;9.98;2.83;;;;;;;;;;5085740;28;20070;-59
2022/05/24 05:41:12;;;;;;;9.77;2.90;;;;;;;;;;5085060;28;20055;-60
2022/05/24 05:43:38;;;;;;;9.68;3.55;;;;;;;;;;5093240;28;20023;-60
2022/05/24 05:46:04;;;;;;;10.95;3.08;;;;;;;;;;5087330;28;20031;-59
2022/05/24 05:48:30;;;;;;;7.20;3.00;;;;;;;;;;5091895;28;20032;-59
2022/05/24 05:50:56;;;;;;;5.97;2.63;;;;;;;;;;5096252;28;20059;-57
2022/05/24 05:53:23;;;;;;;9.18;2.80;;;;;;;;;;5099607;28;20077;-59
2022/05/24 05:55:49;;;;;;;8.70;2.92;;;;;;;;;;5081971;28;20044;-59
2022/05/24 05:58:15;;;;;;;7.88;2.67;;;;;;;;;;5082440;28;20364;-59
2022/05/24 06:00:41;;;;;;;11.07;3.30;;;;;;;;;;5086402;28;20024;-59
2022/05/24 06:03:08;;;;;;;6.63;2.47;;;;;;;;;;5091097;28;20035;-59
2022/05/24 06:05:34;;;;;;;7.30;2.60;;;;;;;;;;5085840;28;20030;-59
2022/05/24 06:08:01;;;;;;;7.50;2.45;;;;;;;;;;5086640;28;20032;-60
2022/05/24 06:10:27;;;;;;;10.35;2.83;;;;;;;;;;5081170;28;20028;-59
2022/05/24 06:12:54;;;;;;;9.38;2.78;;;;;;;;;;5084610;28;20028;-58
2022/05/24 06:15:20;;;;;;;8.45;2.75;;;;;;;;;;5090539;28;20119;-59
2022/05/24 06:17:48;;;;;;;9.85;2.60;;;;;;;;;;5097300;28;20115;-57
2022/05/24 06:20:14;;;;;;;10.50;3.35;;;;;;;;;;5091516;28;20028;-59
2022/05/24 06:22:40;;;;;;;7.05;3.15;;;;;;;;;;5085025;27;20412;-58
2022/05/24 06:25:06;;;;;;;11.30;3.00;;;;;;;;;;5086975;28;20139;-59
2022/05/24 06:27:32;;;;;;;8.82;2.97;;;;;;;;;;5090850;28;20036;-60
2022/05/24 06:29:58;;;;;;;5.85;2.78;;;;;;;;;;5087860;28;20043;-59
2022/05/24 06:32:24;;;;;;;7.45;2.70;;;;;;;;;;5084271;28;20036;-60
2022/05/24 06:34:53;;;;;;;4.63;2.65;;;;;;;;;;5086047;28;20267;-60
2022/05/24 06:37:19;;;;;;;8.45;2.60;;;;;;;;;;5084994;28;20039;-56
2022/05/24 06:39:45;;;;;;;9.10;2.92;;;;;;;;;;5094167;28;20024;-59
2022/05/24 06:42:11;;;;;;;10.48;2.95;;;;;;;;;;5089937;28;20166;-60
2022/05/24 06:44:37;;;;;;;8.50;2.47;;;;;;;;;;5088991;28;20024;-57
2022/05/24 06:47:04;;;;;;;6.38;2.70;;;;;;;;;;5081998;28;20477;-60
2022/05/24 06:49:30;;;;;;;8.90;2.70;;;;;;;;;;5090142;28;20040;-60
2022/05/24 06:51:56;;;;;;;8.57;2.70;;;;;;;;;;5077527;28;20028;-57
2022/05/24 06:54:22;;;;;;;7.68;2.92;;;;;;;;;;5078231;28;20023;-60
2022/05/24 06:56:48;;;;;;;7.72;2.90;;;;;;;;;;5071638;28;20032;-59
2022/05/24 07:04:44;;;;;;;9.25;2.90;;;;;;;;;;5081280;28;20089;-59
2022/05/24 07:07:10;;;;;;;6.88;2.90;;;;;;;;;;5083825;28;20468;-59
2022/05/24 07:09:37;;;;;;;10.32;3.25;;;;;;;;;;5082644;28;20051;-59
2022/05/24 07:12:04;;;;;;;7.93;3.05;;;;;;;;;;5085634;28;20052;-59
2022/05/24 07:14:33;;;;;;;9.82;3.33;;;;;;;;;;5074094;28;20550;-60
2022/05/24 07:16:59;;;;;;;9.35;2.50;;;;;;;;;;5088848;28;20119;-60
2022/05/24 07:19:25;;;;;;;4.53;2.20;;;;;;;;;;5096854;28;20099;-59
2022/05/24 07:21:51;;;;;;;6.32;2.85;;;;;;;;;;5084777;28;20029;-60
2022/05/24 07:24:17;;;;;;;6.72;3.00;;;;;;;;;;5080287;28;20548;-60
2022/05/24 07:26:44;;;;;;;10.02;2.60;;;;;;;;;;5083691;28;20032;-58
2022/05/24 07:29:10;;;;;;;6.78;2.42;;;;;;;;;;5081983;28;20783;-60
2022/05/24 07:31:38;;;;;;;9.50;2.58;;;;;;;;;;5099233;28;20035;-57
2022/05/24 07:34:04;;;;;;;7.57;3.05;;;;;;;;;;5088048;28;20107;-59
2022/05/24 07:36:30;;;;;;;10.82;3.10;;;;;;;;;;5096628;28;20542;-58
2022/05/24 07:38:58;;;;;;;6.60;2.63;;;;;;;;;;5077084;28;20028;-60
2022/05/24 07:46:55;;;;;;;7.30;2.85;;;;;;;;;;5081745;28;20030;-60
2022/05/24 07:49:21;;;;;;;6.55;2.80;;;;;;;;;;5085619;28;20023;-59
2022/05/24 07:51:47;;;;;;;5.03;2.60;;;;;;;;;;5077624;28;20035;-57
2022/05/24 07:54:13;;;;;;;4.53;2.10;;;;;;;;;;5094345;28;20094;-58
2022/05/24 07:56:39;;;;;;;6.20;2.75;;;;;;;;;;5091108;28;20538;-58
2022/05/24 07:59:05;;;;;;;7.63;2.17;;;;;;;;;;5088665;28;20032;-60
2022/05/24 08:01:31;;;;;;;7.88;2.50;;;;;;;;;;5086611;28;20044;-58
2022/05/24 08:03:57;;;;;;;6.53;2.20;;;;;;;;;;5089455;28;20395;-59
2022/05/24 08:06:23;;;;;;;7.32;2.53;;;;;;;;;;5082865;28;20025;-55
2022/05/24 08:08:49;;;;;;;8.32;2.58;;;;;;;;;;5081650;27;20089;-60
2022/05/24 08:11:15;;;;;;;9.95;2.45;;;;;;;;;;5081492;28;20102;-60
2022/05/24 08:13:41;;;;;;;9.50;2.10;;;;;;;;;;5096779;28;20062;-60
2022/05/24 08:16:07;;;;;;;4.32;1.92;;;;;;;;;;5084024;28;20086;-60
2022/05/24 08:18:33;;;;;;;5.90;2.22;;;;;;;;;;5081635;28;20028;-61
2022/05/24 08:20:59;;;;;;;9.85;2.40;;;;;;;;;;5090917;28;20022;-60
2022/05/24 08:23:27;;;;;;;4.13;1.88;;;;;;;;;;5085619;28;20024;-61
2022/05/24 08:25:54;;;;;;;4.03;1.88;;;;;;;;;;5079976;28;20443;-59
2022/05/24 08:28:20;;;;;;;4.30;1.90;;;;;;;;;;5083745;28;20114;-60
2022/05/24 08:30:47;;;;;;;7.05;2.42;;;;;;;;;;5089954;28;20024;-60
2022/05/24 08:33:14;;;;;;;8.02;2.13;;;;;;;;;;5080223;28;20391;-60
2022/05/24 08:35:41;;;;;;;8.50;1.80;;;;;;;;;;5085901;28;20030;-59
2022/05/24 08:38:07;;;;;;;5.60;2.08;;;;;;;;;;5073401;28;20537;-57
2022/05/24 08:40:37;;;;;;;4.38;1.75;;;;;;;;;;5085580;28;20062;-60
2022/05/24 08:43:03;;;;;;;6.53;1.80;;;;;;;;;;5080636;28;20020;-60
2022/05/24 08:48:27;;;;;;;6.53;2.03;;;;;;;;;;5082387;28;20109;-59
2022/05/24 08:51:10;;;;;;;6.10;1.95;;;;;;;;;;5082656;28;20043;-58
2022/05/24 08:53:39;;;;;;;6.35;2.33;;;;;;;;;;5082207;28;20120;-60
2022/05/24 08:56:06;;;;;;;4.35;1.80;;;;;;;;;;5083843;28;20396;-59
2022/05/24 08:58:42;;;;;;;4.38;1.83;;;;;;;;;;5084823;28;20130;-57
2022/05/24 09:01:25;;;;;;;7.00;2.00;;;;;;;;;;5079981;28;20032;-61
2022/05/24 09:03:51;;;;;;;5.78;2.22;;;;;;;;;;5088579;28;20538;-57
2022/05/24 09:06:44;;;;;;;5.05;2.25;;;;;;;;;;5078640;28;20085;-56
2022/05/24 09:09:22;;;;;;;7.28;2.38;;;;;;;;;;5081536;28;20105;-60
2022/05/24 09:11:51;;;;;;;7.78;2.40;;;;;;;;;;5087448;28;20027;-60
2022/05/24 09:14:22;;;;;;;6.13;2.25;;;;;;;;;;5095858;28;20094;-60
2022/05/24 09:16:57;;;;;;;5.65;2.35;;;;;;;;;;5086926;28;20032;-59
2022/05/24 09:19:25;;;;;;;7.20;2.03;;;;;;;;;;5085618;28;20677;-61
2022/05/24 09:21:53;;;;;;;3.28;1.67;;;;;;;;;;5095971;28;20062;-60
2022/05/24 09:24:18;;;;;;;5.45;1.90;;;;;;;;;;5075278;28;20480;-58
2022/05/24 09:27:03;;;;;;;6.25;2.05;;;;;;;;;;5087651;28;20111;-60
2022/05/24 09:29:31;;;;;;;4.80;1.80;;;;;;;;;;5086132;28;20438;-61
2022/05/24 09:31:58;;;;;;;5.70;1.80;;;;;;;;;;5092120;28;20028;-60
2022/05/24 09:34:29;;;;;;;4.68;1.50;;;;;;;;;;5079830;28;20103;-60
2022/05/24 09:37:03;;;;;;;6.03;1.70;;;;;;;;;;5085250;28;20377;-60
2022/05/24 09:39:30;;;;;;;4.85;1.98;;;;;;;;;;5082978;28;20047;-60
2022/05/24 09:42:07;;;;;;;4.63;1.92;;;;;;;;;;5080258;28;20019;-60
2022/05/24 09:44:46;;;;;;;4.50;1.50;;;;;;;;;;5090220;28;20031;-60
2022/05/24 09:47:31;;;;;;;5.93;1.40;;;;;;;;;;5081876;28;20383;-59
2022/05/24 09:50:18;;;;;;;5.20;1.20;;;;;;;;;;5075227;28;20036;-57
2022/05/24 09:53:04;;;;;;;5.43;1.60;;;;;;;;;;5066876;28;21085;-60
2022/05/24 09:55:38;;;;;;;4.22;1.30;;;;;;;;;;5087696;28;20028;-60
2022/05/24 09:58:27;;;;;;;4.63;1.40;;;;;;;;;;5087746;28;20431;-61
2022/05/24 10:00:56;;;;;;;3.45;1.20;;;;;;;;;;5077582;28;20044;-59
2022/05/24 10:03:27;;;;;;;6.35;1.50;;;;;;;;;;5084826;28;20020;-58
2022/05/24 10:06:04;;;;;;;3.83;1.10;;;;;;;;;;5078039;28;20028;-59
2022/05/24 10:08:34;;;;;;;3.80;1.10;;;;;;;;;;5086417;28;20032;-61
2022/05/24 10:11:00;;;;;;;4.20;1.00;;;;;;;;;;5084067;28;20052;-60
2022/05/24 10:13:38;;;;;;;5.00;1.17;;;;;;;;;;5097657;28;20059;-58
2022/05/24 10:16:04;;;;;;;4.93;2.22;;;;;;;;;;5089252;27;20038;-60
2022/05/24 10:18:49;;;;;;;6.95;1.40;;;;;;;;;;5085171;28;20118;-59
2022/05/24 10:21:21;;;;;;;4.75;1.30;;;;;;;;;;5087773;28;20034;-60
2022/05/24 10:24:05;;;;;;;3.33;1.20;;;;;;;;;;5087135;28;20069;-58
2022/05/24 10:26:41;;;;;;;4.93;1.20;;;;;;;;;;5075144;28;20023;-60
2022/05/24 10:29:28;;;;;;;4.13;1.48;;;;;;;;;;5076488;28;20460;-60
2022/05/24 10:32:08;;;;;;;18.98;12.32;;;;;;;;;;5089164;28;20055;-61
2022/05/24 10:40:43;;;;;;;2.95;1.30;;;;;;;;;;5080877;28;20039;-62
2022/05/24 10:43:09;;;;;;;4.47;1.25;;;;;;;;;;5094092;28;20119;-60
2022/05/24 10:46:01;;;;;;;5.38;1.67;;;;;;;;;;5082033;28;20210;-60
2022/05/24 10:48:31;;;;;;;3.30;0.90;;;;;;;;;;5084700;28;20196;-59
2022/05/24 10:50:59;;;;;;;1.98;1.10;;;;;;;;;;5083226;28;20452;-59
2022/05/24 10:53:25;;;;;;;3.60;1.40;;;;;;;;;;5077881;28;20031;-61
2022/05/24 10:55:57;;;;;;;2.97;1.05;;;;;;;;;;5089824;28;20592;-58
2022/05/24 10:58:24;;;;;;;4.10;1.00;;;;;;;;;;5083867;28;20020;-60
2022/05/24 11:01:02;;;;;;;4.22;1.23;;;;;;;;;;5089493;28;20031;-59
2022/05/24 11:03:30;;;;;;;4.97;1.10;;;;;;;;;;5085081;28;20426;-60
2022/05/24 11:05:59;;;;;;;3.30;1.05;;;;;;;;;;5081366;28;20471;-60
2022/05/24 11:08:31;;;;;;;3.38;1.05;;;;;;;;;;5087380;28;20108;-60
2022/05/24 11:11:01;;;;;;;4.40;1.20;;;;;;;;;;5086807;28;20055;-59
2022/05/24 11:13:46;;;;;;;1.33;0.90;;;;;;;;;;5086789;28;20028;-61
2022/05/24 11:16:18;;;;;;;5.47;1.30;;;;;;;;;;5086063;28;20476;-60
2022/05/24 11:18:44;;;;;;;3.05;1.13;;;;;;;;;;5081897;28;20021;-58
2022/05/24 11:21:18;;;;;;;3.58;1.13;;;;;;;;;;5083858;28;20035;-60
2022/05/24 11:23:47;;;;;;;3.70;1.17;;;;;;;;;;5093170;28;20020;-60
2022/05/24 11:26:18;;;;;;;3.38;1.00;;;;;;;;;;5079013;28;20027;-60
2022/05/24 11:28:51;;;;;;;3.47;1.10;;;;;;;;;;5081075;28;20051;-59
2022/05/24 11:31:20;;;;;;;4.30;1.48;;;;;;;;;;5084305;28;20060;-61
2022/05/24 11:33:48;;;;;;;4.63;1.25;;;;;;;;;;5080574;28;20035;-58
2022/05/24 11:36:40;;;;;;;7.45;1.30;;;;;;;;;;5089488;28;20357;-59
2022/05/24 11:39:15;;;;;;;3.67;1.58;;;;;;;;;;5078026;28;20032;-59
2022/05/24 11:41:41;;;;;;;3.90;1.27;;;;;;;;;;5090044;28;20681;-59
2022/05/24 11:44:27;;;;;;;4.20;1.30;;;;;;;;;;5086868;28;20048;-57
2022/05/24 11:46:53;;;;;;;3.33;1.20;;;;;;;;;;5079300;28;20453;-57
2022/05/24 11:49:19;;;;;;;1.85;1.00;;;;;;;;;;5091179;28;20467;-60
2022/05/24 11:51:46;;;;;;;11.80;6.50;;;;;;;;;;5073089;28;20047;-58
2022/05/24 11:54:12;;;;;;;4.20;1.77;;;;;;;;;;5087442;28;20375;-60
2022/05/24 11:56:38;;;;;;;2.72;1.23;;;;;;;;;;5079939;28;20028;-61
2022/05/24 11:59:06;;;;;;;4.53;1.40;;;;;;;;;;5075343;28;20020;-59
2022/05/24 12:01:50;;;;;;;4.25;1.75;;;;;;;;;;5099404;28;20562;-60
2022/05/24 12:10:08;;;;;;;2.15;1.30;;;;;;;;;;5090201;28;20547;-60
2022/05/24 12:12:34;;;;;;;4.10;1.13;;;;;;;;;;5086996;28;20089;-59
2022/05/24 12:15:06;;;;;;;3.58;1.13;;;;;;;;;;5087214;28;20106;-58
2022/05/24 12:17:32;;;;;;;8.93;1.75;;;;;;;;;;5086847;28;20034;-61
2022/05/24 12:19:59;;;;;;;5.10;1.42;;;;;;;;;;5081446;28;20057;-61
2022/05/24 12:22:27;;;;;;;2.92;1.40;;;;;;;;;;5082431;28;20135;-59
2022/05/24 12:24:57;;;;;;;3.28;1.50;;;;;;;;;;5088432;28;20023;-60
2022/05/24 12:27:43;;;;;;;5.53;1.40;;;;;;;;;;5081353;28;20085;-60
2022/05/24 12:30:15;;;;;;;2.33;1.30;;;;;;;;;;5085308;28;20027;-60
2022/05/24 12:32:41;;;;;;;2.85;1.40;;;;;;;;;;5088578;28;20449;-60
2022/05/24 12:35:09;;;;;;;3.75;1.20;;;;;;;;;;5085138;28;20032;-60
2022/05/24 12:37:36;;;;;;;2.40;0.73;;;;;;;;;;5090874;28;20545;-58
2022/05/24 12:40:06;;;;;;;1.00;0.60;;;;;;;;;;5086373;28;20455;-59
2022/05/24 12:42:32;;;;;;;1.58;0.50;;;;;;;;;;5089285;28;20502;-60
2022/05/24 12:45:00;;;;;;;1.13;0.63;;;;;;;;;;5087665;28;20066;-59
2022/05/24 12:47:27;;;;;;;1.67;0.60;;;;;;;;;;5082974;28;20036;-60
2022/05/24 12:49:54;;;;;;;3.15;0.68;;;;;;;;;;5086264;28;20435;-60
2022/05/24 12:52:22;;;;;;;1.25;0.70;;;;;;;;;;5074261;28;20081;-57
2022/05/24 12:54:53;;;;;;;2.58;0.50;;;;;;;;;;5093797;28;20089;-59
2022/05/24 12:57:21;;;;;;;1.85;0.68;;;;;;;;;;5076103;28;20081;-60
2022/05/24 12:59:55;;;;;;;6.70;0.70;;;;;;;;;;5094292;28;20016;-59
2022/05/24 13:02:33;;;;;;;3.42;0.70;;;;;;;;;;5086880;28;20069;-60
2022/05/24 13:05:09;;;;;;;1.17;0.60;;;;;;;;;;5085261;28;20512;-60
2022/05/24 13:07:45;;;;;;;1.13;0.50;;;;;;;;;;5097579;28;20496;-61
2022/05/24 13:10:11;;;;;;;2.22;0.63;;;;;;;;;;5089447;28;20495;-59
2022/05/24 13:12:38;;;;;;;1.77;0.70;;;;;;;;;;5087697;28;20028;-59
2022/05/24 13:15:05;;;;;;;6.03;0.60;;;;;;;;;;5084449;28;20036;-59
2022/05/24 13:17:38;;;;;;;2.80;0.50;;;;;;;;;;5085483;28;20150;-60
2022/05/24 13:20:06;;;;;;;4.05;0.90;;;;;;;;;;5070822;28;20128;-59
2022/05/24 13:22:41;;;;;;;8.80;1.00;;;;;;;;;;5090973;28;20106;-60
2022/05/24 13:25:10;;;;;;;1.02;0.70;;;;;;;;;;5089705;28;20376;-56
2022/05/24 13:27:55;;;;;;;3.67;0.70;;;;;;;;;;5096244;28;20088;-55
2022/05/24 13:33:35;;;;;;;3.20;0.80;;;;;;;;;;5082676;28;20069;-59
2022/05/24 13:36:02;;;;;;;1.23;0.70;;;;;;;;;;5085643;28;20031;-57
2022/05/24 13:38:28;;;;;;;1.27;0.77;;;;;;;;;;5080508;28;20030;-59
2022/05/24 13:40:56;;;;;;;0.95;0.50;;;;;;;;;;5085769;28;20038;-59
2022/05/24 13:43:54;;;;;;;1.60;0.70;;;;;;;;;;5092489;28;20557;-57
2022/05/24 13:46:21;;;;;;;0.55;0.55;;;;;;;;;;5075099;28;20394;-59
2022/05/24 13:48:55;;;;;;;3.08;0.60;;;;;;;;;;5085238;28;20027;-58
2022/05/24 13:51:27;;;;;;;1.13;0.60;;;;;;;;;;5074886;28;20024;-58
2022/05/24 13:53:54;;;;;;;1.63;0.88;;;;;;;;;;5082632;28;20016;-59
2022/05/24 13:56:22;;;;;;;1.95;0.95;;;;;;;;;;5101590;28;20031;-60
2022/05/24 13:58:49;;;;;;;3.08;1.05;;;;;;;;;;5088063;28;20038;-60
2022/05/24 14:01:27;;;;;;;2.58;0.77;;;;;;;;;;5097983;28;20100;-59
2022/05/24 14:03:55;;;;;;;4.18;1.10;;;;;;;;;;5092853;28;20016;-60
2022/05/24 14:06:22;;;;;;;2.78;0.90;;;;;;;;;;5085222;28;20020;-61
2022/05/24 14:08:50;;;;;;;2.75;0.85;;;;;;;;;;5095642;28;20031;-58
2022/05/24 14:11:18;;;;;;;3.38;1.10;;;;;;;;;;5090447;28;20032;-60
2022/05/24 14:13:45;;;;;;;1.83;0.90;;;;;;;;;;5095441;28;20031;-61
2022/05/24 14:16:11;;;;;;;3.78;1.20;;;;;;;;;;5083934;28;20076;-59
2022/05/24 14:18:38;;;;;;;3.25;0.90;;;;;;;;;;5082832;28;20107;-60
2022/05/24 14:21:05;;;;;;;3.35;1.00;;;;;;;;;;5085946;28;20023;-58
2022/05/24 14:23:31;;;;;;;1.60;0.80;;;;;;;;;;5093879;28;20020;-60
2022/05/24 14:25:57;;;;;;;2.63;1.05;;;;;;;;;;5083804;28;20119;-58
2022/05/24 14:28:23;;;;;;;2.47;0.95;;;;;;;;;;5094851;28;20081;-58
2022/05/24 14:30:50;;;;;;;2.92;1.00;;;;;;;;;;5094347;28;20043;-61
2022/05/24 14:33:17;;;;;;;4.32;1.50;;;;;;;;;;5089279;28;20684;-59
2022/05/24 14:35:44;;;;;;;5.40;1.60;;;;;;;;;;5099299;28;20042;-58
2022/05/24 14:38:10;;;;;;;5.50;1.40;;;;;;;;;;5087233;28;20038;-60
2022/05/24 14:40:39;;;;;;;4.45;1.10;;;;;;;;;;5086797;28;20036;-58
2022/05/24 14:43:13;;;;;;;3.03;1.08;;;;;;;;;;5089879;28;20028;-60
2022/05/24 14:45:39;;;;;;;5.68;1.33;;;;;;;;;;5088724;28;20035;-60
2022/05/24 14:48:05;;;;;;;3.80;1.20;;;;;;;;;;5082812;28;20162;-58
2022/05/24 14:50:32;;;;;;;7.28;1.10;;;;;;;;;;5080690;28;20027;-60
2022/05/24 14:53:00;;;;;;;1.65;0.90;;;;;;;;;;5078794;28;20039;-58
2022/05/24 14:55:26;;;;;;;1.35;0.60;;;;;;;;;;5085781;28;20686;-59
2022/05/24 14:57:52;;;;;;;1.40;0.70;;;;;;;;;;5085966;28;20490;-61
2022/05/24 15:00:19;;;;;;;1.23;0.70;;;;;;;;;;5091603;28;20066;-60
2022/05/24 15:02:45;;;;;;;4.38;0.70;;;;;;;;;;5081647;28;20107;-60
2022/05/24 15:05:12;;;;;;;2.28;0.77;;;;;;;;;;5092900;28;20024;-58
2022/05/24 15:15:52;;;;;;;2.20;0.77;;;;;;;;;;5079740;28;20514;-61
2022/05/24 15:18:18;;;;;;;2.35;0.70;;;;;;;;;;5093298;28;20024;-61
2022/05/24 15:20:48;;;;;;;3.38;0.80;;;;;;;;;;5070517;28;20555;-59
2022/05/24 15:23:19;;;;;;;1.52;0.98;;;;;;;;;;5077580;28;20057;-59
2022/05/24 15:25:54;;;;;;;2.97;0.90;;;;;;;;;;5079897;28;20127;-60
2022/05/24 15:28:21;;;;;;;3.08;0.88;;;;;;;;;;5088971;28;20031;-59
2022/05/24 15:30:47;;;;;;;2.03;0.98;;;;;;;;;;5077656;28;20031;-58
2022/05/24 15:33:14;;;;;;;2.20;0.77;;;;;;;;;;5084328;28;20028;-59
2022/05/24 15:35:41;;;;;;;1.85;0.80;;;;;;;;;;5087636;28;20040;-59